sensor_id;sensor_type;location;lat;lon;timestamp;pressure;altitude;pressure_sealevel;temperature;humidity
59367;BME280;45163;47.690;11.770;2023-05-19T00:01:58;93639.06;;;9.97;100.00
59367;BME280;45163;47.690;11.770;2023-05-19T00:04:30;93644.19;;;9.95;100.00
59367;BME280;45163;47.690;11.770;2023-05-19T00:06:58;93632.06;;;9.96;100.00
59367;BME280;45163;47.690;11.770;2023-05-19T00:09:25;93634.59;;;9.87;100.00
59367;BME280;45163;47.690;11.770;2023-05-19T00:11:51;93634.59;;;9.87;100.00
59367;BME280;45163;47.690;11.770;2023-05-19T00:14:17;93622.34;;;9.95;100.00
59367;BME280;45163;47.690;11.770;2023-05-19T00:16:43;93628.66;;;9.92;100.00
59367;BME280;45163;47.690;11.770;2023-05-19T00:19:09;93631.22;;;10.00;100.00
59367;BME280;45163;47.690;11.770;2023-05-19T00:21:36;93624.91;;;10.03;100.00
59367;BME280;45163;47.690;11.770;2023-05-19T00:24:06;93629.78;;;9.95;100.00
59367;BME280;45163;47.690;11.770;2023-05-19T00:26:32;93623.41;;;9.82;100.00
59367;BME280;45163;47.690;11.770;2023-05-19T00:28:58;93635.13;;;9.98;100.00
59367;BME280;45163;47.690;11.770;2023-05-19T00:31:24;93626.63;;;9.77;100.00
59367;BME280;45163;47.690;11.770;2023-05-19T00:33:50;93629.41;;;9.93;100.00
59367;BME280;45163;47.690;11.770;2023-05-19T00:36:17;93622.53;;;10.05;100.00
59367;BME280;45163;47.690;11.770;2023-05-19T00:38:43;93627.69;;;9.83;100.00
59367;BME280;45163;47.690;11.770;2023-05-19T00:41:09;93629.72;;;9.79;100.00
59367;BME280;45163;47.690;11.770;2023-05-19T00:43:35;93626.09;;;9.65;100.00
59367;BME280;45163;47.690;11.770;2023-05-19T00:46:02;93627.91;;;9.72;100.00
59367;BME280;45163;47.690;11.770;2023-05-19T00:48:28;93623.66;;;9.71;100.00
59367;BME280;45163;47.690;11.770;2023-05-19T00:50:55;93625.19;;;9.72;100.00
59367;BME280;45163;47.690;11.770;2023-05-19T00:53:27;93625.25;;;9.68;100.00
59367;BME280;45163;47.690;11.770;2023-05-19T00:55:54;93618.91;;;9.75;100.00
59367;BME280;45163;47.690;11.770;2023-05-19T00:58:20;93619.03;;;9.68;100.00
59367;BME280;45163;47.690;11.770;2023-05-19T01:00:49;93614.91;;;9.80;100.00
59367;BME280;45163;47.690;11.770;2023-05-19T01:03:15;93616.53;;;9.57;100.00
59367;BME280;45163;47.690;11.770;2023-05-19T01:05:45;93613.25;;;9.66;100.00
59367;BME280;45163;47.690;11.770;2023-05-19T01:08:12;93617.13;;;9.65;100.00
59367;BME280;45163;47.690;11.770;2023-05-19T01:10:38;93606.31;;;9.61;100.00
59367;BME280;45163;47.690;11.770;2023-05-19T01:13:05;93615.69;;;9.60;100.00
59367;BME280;45163;47.690;11.770;2023-05-19T01:15:45;93613.38;;;9.59;100.00
59367;BME280;45163;47.690;11.770;2023-05-19T01:18:22;93609.66;;;9.69;100.00
59367;BME280;45163;47.690;11.770;2023-05-19T01:20:57;93609.72;;;9.65;100.00
59367;BME280;45163;47.690;11.770;2023-05-19T01:23:59;93609.69;;;9.49;100.00
59367;BME280;45163;47.690;11.770;2023-05-19T01:32:05;93612.13;;;9.63;100.00
59367;BME280;45163;47.690;11.770;2023-05-19T01:34:33;93609.91;;;9.58;100.00
59367;BME280;45163;47.690;11.770;2023-05-19T01:37:04;93615.84;;;9.53;100.00
59367;BME280;45163;47.690;11.770;2023-05-19T01:39:30;93611.84;;;9.58;100.00
59367;BME280;45163;47.690;11.770;2023-05-19T01:41:58;93607.31;;;9.51;100.00
59367;BME280;45163;47.690;11.770;2023-05-19T01:44:25;93603.81;;;9.70;100.00
59367;BME280;45163;47.690;11.770;2023-05-19T01:46:51;93610.88;;;9.48;100.00
59367;BME280;45163;47.690;11.770;2023-05-19T01:49:17;93610.41;;;9.53;100.00
59367;BME280;45163;47.690;11.770;2023-05-19T01:51:44;93606.53;;;9.51;100.00
59367;BME280;45163;47.690;11.770;2023-05-19T01:54:09;93607.44;;;9.44;100.00
59367;BME280;45163;47.690;11.770;2023-05-19T01:56:51;93610.41;;;9.53;100.00
59367;BME280;45163;47.690;11.770;2023-05-19T02:02:04;93611.78;;;9.41;100.00
59367;BME280;45163;47.690;11.770;2023-05-19T02:04:42;93606.97;;;9.49;100.00
59367;BME280;45163;47.690;11.770;2023-05-19T02:07:14;93610.88;;;9.48;100.00
59367;BME280;45163;47.690;11.770;2023-05-19T02:10:03;93602.63;;;9.52;100.00
59367;BME280;45163;47.690;11.770;2023-05-19T02:12:39;93611.63;;;9.48;100.00
59367;BME280;45163;47.690;11.770;2023-05-19T02:17:39;93606.66;;;9.43;100.00
59367;BME280;45163;47.690;11.770;2023-05-19T02:20:13;93607.56;;;9.57;100.00
59367;BME280;45163;47.690;11.770;2023-05-19T02:22:39;93612.00;;;9.51;100.00
59367;BME280;45163;47.690;11.770;2023-05-19T02:25:07;93600.19;;;9.57;100.00
59367;BME280;45163;47.690;11.770;2023-05-19T02:27:34;93603.75;;;9.54;100.00
59367;BME280;45163;47.690;11.770;2023-05-19T02:30:04;93604.25;;;9.29;100.00
59367;BME280;45163;47.690;11.770;2023-05-19T02:32:31;93604.44;;;9.38;100.00
59367;BME280;45163;47.690;11.770;2023-05-19T02:34:57;93599.81;;;9.35;100.00
59367;BME280;45163;47.690;11.770;2023-05-19T02:37:23;93599.69;;;9.42;100.00
59367;BME280;45163;47.690;11.770;2023-05-19T02:39:50;93598.31;;;9.34;100.00
59367;BME280;45163;47.690;11.770;2023-05-19T02:42:16;93595.06;;;9.39;100.00
59367;BME280;45163;47.690;11.770;2023-05-19T02:44:42;93593.28;;;9.33;100.00
59367;BME280;45163;47.690;11.770;2023-05-19T02:47:08;93591.72;;;9.12;100.00
59367;BME280;45163;47.690;11.770;2023-05-19T02:49:35;93594.38;;;9.35;100.00
59367;BME280;45163;47.690;11.770;2023-05-19T02:52:02;93585.31;;;9.42;100.00
59367;BME280;45163;47.690;11.770;2023-05-19T02:54:31;93588.44;;;9.40;100.00
59367;BME280;45163;47.690;11.770;2023-05-19T02:56:58;93591.81;;;9.28;100.00
59367;BME280;45163;47.690;11.770;2023-05-19T02:59:24;93589.28;;;9.37;100.00
59367;BME280;45163;47.690;11.770;2023-05-19T03:01:53;93585.81;;;9.37;100.00
59367;BME280;45163;47.690;11.770;2023-05-19T03:04:20;93581.13;;;9.37;100.00
59367;BME280;45163;47.690;11.770;2023-05-19T03:06:46;93584.97;;;9.20;100.00
59367;BME280;45163;47.690;11.770;2023-05-19T03:09:12;93584.75;;;9.31;100.00
59367;BME280;45163;47.690;11.770;2023-05-19T03:11:38;93582.03;;;9.31;100.00
59367;BME280;45163;47.690;11.770;2023-05-19T03:14:04;93581.19;;;9.34;100.00
59367;BME280;45163;47.690;11.770;2023-05-19T03:16:30;93581.47;;;9.39;100.00
59367;BME280;45163;47.690;11.770;2023-05-19T03:18:57;93580.75;;;9.35;100.00
59367;BME280;45163;47.690;11.770;2023-05-19T03:21:23;93584.47;;;9.45;100.00
59367;BME280;45163;47.690;11.770;2023-05-19T03:23:49;93579.44;;;9.43;100.00
59367;BME280;45163;47.690;11.770;2023-05-19T03:26:15;93579.50;;;9.40;100.00
59367;BME280;45163;47.690;11.770;2023-05-19T03:28:41;93581.13;;;9.37;100.00
59367;BME280;45163;47.690;11.770;2023-05-19T03:31:07;93579.16;;;9.18;100.00
59367;BME280;45163;47.690;11.770;2023-05-19T03:33:32;93577.97;;;9.39;100.00
59367;BME280;45163;47.690;11.770;2023-05-19T03:35:58;93578.03;;;9.35;100.00
59367;BME280;45163;47.690;11.770;2023-05-19T03:38:24;93579.50;;;9.40;100.00
59367;BME280;45163;47.690;11.770;2023-05-19T03:40:50;93580.53;;;9.06;100.00
59367;BME280;45163;47.690;11.770;2023-05-19T03:43:18;93586.56;;;9.37;100.00
59367;BME280;45163;47.690;11.770;2023-05-19T03:45:44;93584.03;;;9.46;100.00
59367;BME280;45163;47.690;11.770;2023-05-19T03:48:10;93580.88;;;9.48;100.00
59367;BME280;45163;47.690;11.770;2023-05-19T03:50:37;93578.66;;;9.43;100.00
59367;BME280;45163;47.690;11.770;2023-05-19T03:53:03;93589.56;;;9.43;100.00
59367;BME280;45163;47.690;11.770;2023-05-19T03:55:29;93583.09;;;9.37;100.00
59367;BME280;45163;47.690;11.770;2023-05-19T03:57:55;93592.00;;;9.57;100.00
59367;BME280;45163;47.690;11.770;2023-05-19T04:00:21;93589.28;;;9.57;100.00
59367;BME280;45163;47.690;11.770;2023-05-19T04:02:48;93581.88;;;9.38;100.00
59367;BME280;45163;47.690;11.770;2023-05-19T04:05:14;93584.38;;;9.48;100.00
59367;BME280;45163;47.690;11.770;2023-05-19T04:07:40;93586.13;;;9.59;100.00
59367;BME280;45163;47.690;11.770;2023-05-19T04:10:07;93587.19;;;9.45;100.00
59367;BME280;45163;47.690;11.770;2023-05-19T04:12:34;93581.38;;;9.43;100.00
59367;BME280;45163;47.690;11.770;2023-05-19T04:15:00;93581.88;;;9.58;100.00
59367;BME280;45163;47.690;11.770;2023-05-19T04:17:26;93582.66;;;9.58;100.00
59367;BME280;45163;47.690;11.770;2023-05-19T04:19:53;93573.97;;;9.63;100.00
59367;BME280;45163;47.690;11.770;2023-05-19T04:22:19;93581.63;;;9.68;100.00
59367;BME280;45163;47.690;11.770;2023-05-19T04:24:45;93580.31;;;9.57;100.00
59367;BME280;45163;47.690;11.770;2023-05-19T04:27:12;93578.59;;;9.66;100.00
59367;BME280;45163;47.690;11.770;2023-05-19T04:29:41;93582.13;;;9.83;100.00
59367;BME280;45163;47.690;11.770;2023-05-19T04:32:07;93585.50;;;9.71;100.00
59367;BME280;45163;47.690;11.770;2023-05-19T04:34:36;93584.44;;;10.01;100.00
59367;BME280;45163;47.690;11.770;2023-05-19T04:37:06;93584.38;;;10.05;100.00
59367;BME280;45163;47.690;11.770;2023-05-19T04:39:32;93581.59;;;9.88;100.00
59367;BME280;45163;47.690;11.770;2023-05-19T04:41:58;93578.66;;;9.99;100.00
59367;BME280;45163;47.690;11.770;2023-05-19T04:44:24;93571.06;;;10.07;100.00
59367;BME280;45163;47.690;11.770;2023-05-19T04:46:51;93567.47;;;10.30;100.00
59367;BME280;45163;47.690;11.770;2023-05-19T04:49:19;93577.53;;;10.33;100.00
59367;BME280;45163;47.690;11.770;2023-05-19T04:51:45;93567.44;;;10.62;100.00
59367;BME280;45163;47.690;11.770;2023-05-19T04:54:14;93562.81;;;10.76;100.00
59367;BME280;45163;47.690;11.770;2023-05-19T04:56:40;93567.44;;;10.79;100.00
59367;BME280;45163;47.690;11.770;2023-05-19T04:59:08;93564.53;;;10.53;100.00
59367;BME280;45163;47.690;11.770;2023-05-19T05:01:35;93562.88;;;11.17;100.00
59367;BME280;45163;47.690;11.770;2023-05-19T05:04:08;93563.50;;;11.09;100.00
59367;BME280;45163;47.690;11.770;2023-05-19T05:06:34;93550.22;;;11.23;100.00
59367;BME280;45163;47.690;11.770;2023-05-19T05:09:03;93551.34;;;11.26;100.00
59367;BME280;45163;47.690;11.770;2023-05-19T05:11:29;93537.88;;;10.90;100.00
59367;BME280;45163;47.690;11.770;2023-05-19T05:13:55;93544.19;;;11.16;100.00
59367;BME280;45163;47.690;11.770;2023-05-19T05:16:23;93552.69;;;11.47;100.00
59367;BME280;45163;47.690;11.770;2023-05-19T05:18:49;93541.34;;;11.61;100.00
59367;BME280;45163;47.690;11.770;2023-05-19T05:21:15;93537.09;;;11.73;100.00
59367;BME280;45163;47.690;11.770;2023-05-19T05:23:42;93538.31;;;11.17;100.00
59367;BME280;45163;47.690;11.770;2023-05-19T05:26:16;93536.38;;;11.31;100.00
59367;BME280;45163;47.690;11.770;2023-05-19T05:28:43;93541.84;;;11.02;100.00
59367;BME280;45163;47.690;11.770;2023-05-19T05:31:10;93540.50;;;10.93;100.00
59367;BME280;45163;47.690;11.770;2023-05-19T05:33:37;93539.50;;;11.16;100.00
59367;BME280;45163;47.690;11.770;2023-05-19T05:36:03;93534.13;;;11.13;100.00
59367;BME280;45163;47.690;11.770;2023-05-19T05:38:29;93543.25;;;11.35;100.00
59367;BME280;45163;47.690;11.770;2023-05-19T05:40:56;93541.94;;;11.27;100.00
59367;BME280;45163;47.690;11.770;2023-05-19T05:43:22;93530.53;;;11.16;100.00
59367;BME280;45163;47.690;11.770;2023-05-19T05:45:48;93535.06;;;11.35;100.00
59367;BME280;45163;47.690;11.770;2023-05-19T05:48:14;93542.56;;;11.18;100.00
59367;BME280;45163;47.690;11.770;2023-05-19T05:50:42;93542.06;;;11.36;100.00
59367;BME280;45163;47.690;11.770;2023-05-19T05:53:15;93540.63;;;11.03;100.00
59367;BME280;45163;47.690;11.770;2023-05-19T05:55:42;93535.63;;;11.01;100.00
59367;BME280;45163;47.690;11.770;2023-05-19T05:58:08;93536.63;;;11.62;100.00
59367;BME280;45163;47.690;11.770;2023-05-19T06:00:36;93541.28;;;12.03;100.00
59367;BME280;45163;47.690;11.770;2023-05-19T06:03:02;93532.63;;;11.66;100.00
59367;BME280;45163;47.690;11.770;2023-05-19T06:05:29;93526.63;;;12.23;100.00
59367;BME280;45163;47.690;11.770;2023-05-19T06:07:55;93526.13;;;12.50;100.00
59367;BME280;45163;47.690;11.770;2023-05-19T06:10:24;93519.31;;;12.07;100.00
59367;BME280;45163;47.690;11.770;2023-05-19T06:12:49;93530.16;;;11.98;100.00
59367;BME280;45163;47.690;11.770;2023-05-19T06:15:15;93529.66;;;11.73;100.00
59367;BME280;45163;47.690;11.770;2023-05-19T06:17:41;93530.44;;;12.38;100.00
59367;BME280;45163;47.690;11.770;2023-05-19T06:20:08;93533.53;;;12.02;100.00
59367;BME280;45163;47.690;11.770;2023-05-19T06:22:34;93524.72;;;12.45;100.00
59367;BME280;45163;47.690;11.770;2023-05-19T06:25:00;93530.34;;;12.16;100.00
59367;BME280;45163;47.690;11.770;2023-05-19T06:27:26;93526.19;;;12.24;100.00
59367;BME280;45163;47.690;11.770;2023-05-19T06:29:55;93534.06;;;11.71;100.00
59367;BME280;45163;47.690;11.770;2023-05-19T06:32:21;93527.97;;;11.92;100.00
59367;BME280;45163;47.690;11.770;2023-05-19T06:34:47;93532.94;;;11.81;100.00
59367;BME280;45163;47.690;11.770;2023-05-19T06:37:22;93531.00;;;12.07;100.00
59367;BME280;45163;47.690;11.770;2023-05-19T06:39:51;93542.38;;;11.80;100.00
59367;BME280;45163;47.690;11.770;2023-05-19T06:42:20;93547.31;;;11.98;100.00
59367;BME280;45163;47.690;11.770;2023-05-19T06:44:51;93542.50;;;11.89;100.00
59367;BME280;45163;47.690;11.770;2023-05-19T06:47:18;93541.28;;;12.03;100.00
59367;BME280;45163;47.690;11.770;2023-05-19T06:49:44;93538.41;;;12.45;100.00
59367;BME280;45163;47.690;11.770;2023-05-19T06:52:10;93542.47;;;12.53;100.00
59367;BME280;45163;47.690;11.770;2023-05-19T06:54:37;93537.91;;;13.07;100.00
59367;BME280;45163;47.690;11.770;2023-05-19T06:57:03;93534.53;;;13.03;100.00
59367;BME280;45163;47.690;11.770;2023-05-19T06:59:29;93544.59;;;12.11;100.00
59367;BME280;45163;47.690;11.770;2023-05-19T07:01:55;93543.19;;;12.66;100.00
59367;BME280;45163;47.690;11.770;2023-05-19T07:04:21;93541.44;;;12.73;100.00
59367;BME280;45163;47.690;11.770;2023-05-19T07:06:47;93543.13;;;12.92;100.00
59367;BME280;45163;47.690;11.770;2023-05-19T07:09:15;93542.84;;;12.77;100.00
59367;BME280;45163;47.690;11.770;2023-05-19T07:11:41;93543.75;;;13.09;100.00
59367;BME280;45163;47.690;11.770;2023-05-19T07:14:07;93545.88;;;12.92;100.00
59367;BME280;45163;47.690;11.770;2023-05-19T07:16:33;93543.72;;;13.43;100.00
59367;BME280;45163;47.690;11.770;2023-05-19T07:19:19;93538.16;;;13.34;100.00
59367;BME280;45163;47.690;11.770;2023-05-19T07:21:45;93538.16;;;13.87;100.00
59367;BME280;45163;47.690;11.770;2023-05-19T07:24:12;93532.66;;;13.87;100.00
59367;BME280;45163;47.690;11.770;2023-05-19T07:26:38;93525.50;;;14.61;100.00
59367;BME280;45163;47.690;11.770;2023-05-19T07:29:04;93524.47;;;14.86;100.00
59367;BME280;45163;47.690;11.770;2023-05-19T07:31:31;93521.88;;;15.47;100.00
59367;BME280;45163;47.690;11.770;2023-05-19T07:33:57;93518.50;;;14.88;100.00
59367;BME280;45163;47.690;11.770;2023-05-19T07:36:23;93519.41;;;15.40;100.00
59367;BME280;45163;47.690;11.770;2023-05-19T07:38:49;93515.59;;;14.64;100.00
59367;BME280;45163;47.690;11.770;2023-05-19T07:41:15;93521.06;;;14.55;100.00
59367;BME280;45163;47.690;11.770;2023-05-19T07:43:42;93523.84;;;14.73;100.00
59367;BME280;45163;47.690;11.770;2023-05-19T07:46:08;93524.31;;;14.31;100.00
59367;BME280;45163;47.690;11.770;2023-05-19T07:48:43;93518.53;;;14.97;100.00
59367;BME280;45163;47.690;11.770;2023-05-19T07:51:09;93516.03;;;14.62;100.00
59367;BME280;45163;47.690;11.770;2023-05-19T07:53:35;93514.78;;;14.54;100.00
59367;BME280;45163;47.690;11.770;2023-05-19T07:56:02;93509.97;;;14.27;100.00
59367;BME280;45163;47.690;11.770;2023-05-19T07:58:28;93508.72;;;14.87;100.00
59367;BME280;45163;47.690;11.770;2023-05-19T08:00:58;93506.75;;;15.24;100.00
59367;BME280;45163;47.690;11.770;2023-05-19T08:03:24;93507.38;;;15.01;100.00
59367;BME280;45163;47.690;11.770;2023-05-19T08:05:51;93508.25;;;15.25;100.00
59367;BME280;45163;47.690;11.770;2023-05-19T08:08:17;93508.53;;;15.64;100.00
59367;BME280;45163;47.690;11.770;2023-05-19T08:10:45;93504.13;;;15.30;100.00
59367;BME280;45163;47.690;11.770;2023-05-19T08:13:11;93502.78;;;15.34;100.00
59367;BME280;45163;47.690;11.770;2023-05-19T08:15:38;93495.81;;;16.27;100.00
59367;BME280;45163;47.690;11.770;2023-05-19T08:18:04;93491.19;;;16.57;100.00
59367;BME280;45163;47.690;11.770;2023-05-19T08:20:30;93496.75;;;18.38;100.00
59367;BME280;45163;47.690;11.770;2023-05-19T08:22:56;93501.13;;;18.45;100.00
59367;BME280;45163;47.690;11.770;2023-05-19T08:25:22;93496.09;;;19.66;100.00
59367;BME280;45163;47.690;11.770;2023-05-19T08:27:48;93505.34;;;18.96;100.00
59367;BME280;45163;47.690;11.770;2023-05-19T08:30:14;93500.56;;;18.26;100.00
59367;BME280;45163;47.690;11.770;2023-05-19T08:32:40;93500.38;;;18.30;100.00
59367;BME280;45163;47.690;11.770;2023-05-19T08:35:06;93504.50;;;17.60;100.00
59367;BME280;45163;47.690;11.770;2023-05-19T08:37:33;93501.84;;;17.66;100.00
59367;BME280;45163;47.690;11.770;2023-05-19T08:40:02;93504.00;;;17.32;100.00
59367;BME280;45163;47.690;11.770;2023-05-19T08:42:30;93502.88;;;16.19;100.00
59367;BME280;45163;47.690;11.770;2023-05-19T08:44:58;93502.88;;;15.58;100.00
59367;BME280;45163;47.690;11.770;2023-05-19T08:47:25;93498.97;;;15.13;100.00
59367;BME280;45163;47.690;11.770;2023-05-19T08:50:06;93504.84;;;14.48;100.00
59367;BME280;45163;47.690;11.770;2023-05-19T08:52:45;93498.78;;;15.17;100.00
59367;BME280;45163;47.690;11.770;2023-05-19T08:55:24;93492.09;;;15.18;100.00
59367;BME280;45163;47.690;11.770;2023-05-19T08:57:54;93487.31;;;15.37;100.00
59367;BME280;45163;47.690;11.770;2023-05-19T09:00:21;93482.31;;;15.26;100.00
59367;BME280;45163;47.690;11.770;2023-05-19T09:02:48;93482.59;;;14.55;100.00
59367;BME280;45163;47.690;11.770;2023-05-19T09:05:16;93487.22;;;14.85;100.00
59367;BME280;45163;47.690;11.770;2023-05-19T09:07:43;93478.34;;;15.88;100.00
59367;BME280;45163;47.690;11.770;2023-05-19T09:10:09;93481.84;;;16.31;100.00
59367;BME280;45163;47.690;11.770;2023-05-19T09:12:40;93477.06;;;16.40;100.00
59367;BME280;45163;47.690;11.770;2023-05-19T09:15:07;93481.88;;;16.79;100.00
59367;BME280;45163;47.690;11.770;2023-05-19T09:17:34;93475.25;;;17.24;100.00
59367;BME280;45163;47.690;11.770;2023-05-19T09:20:01;93467.66;;;17.34;100.00
59367;BME280;45163;47.690;11.770;2023-05-19T09:22:28;93479.69;;;16.59;100.00
59367;BME280;45163;47.690;11.770;2023-05-19T09:24:55;93478.47;;;16.36;100.00
59367;BME280;45163;47.690;11.770;2023-05-19T09:27:21;93482.06;;;16.18;100.00
59367;BME280;45163;47.690;11.770;2023-05-19T09:29:50;93486.69;;;16.12;100.00
59367;BME280;45163;47.690;11.770;2023-05-19T09:32:26;93480.09;;;15.76;100.00
59367;BME280;45163;47.690;11.770;2023-05-19T09:34:52;93474.31;;;15.65;100.00
59367;BME280;45163;47.690;11.770;2023-05-19T09:37:23;93489.00;;;15.25;100.00
59367;BME280;45163;47.690;11.770;2023-05-19T09:39:49;93484.84;;;15.57;100.00
59367;BME280;45163;47.690;11.770;2023-05-19T09:42:24;93482.59;;;15.37;100.00
59367;BME280;45163;47.690;11.770;2023-05-19T09:45:01;93482.63;;;14.73;100.00
59367;BME280;45163;47.690;11.770;2023-05-19T09:47:38;93478.78;;;14.70;100.00
59367;BME280;45163;47.690;11.770;2023-05-19T09:50:06;93477.69;;;15.41;100.00
59367;BME280;45163;47.690;11.770;2023-05-19T09:52:51;93469.16;;;15.21;100.00
59367;BME280;45163;47.690;11.770;2023-05-19T09:55:17;93469.09;;;15.58;100.00
59367;BME280;45163;47.690;11.770;2023-05-19T09:57:48;93478.38;;;16.21;100.00
59367;BME280;45163;47.690;11.770;2023-05-19T10:00:15;93476.94;;;15.32;100.00
59367;BME280;45163;47.690;11.770;2023-05-19T10:02:46;93470.56;;;15.86;100.00
59367;BME280;45163;47.690;11.770;2023-05-19T10:05:14;93477.34;;;15.58;100.00
59367;BME280;45163;47.690;11.770;2023-05-19T10:07:45;93475.38;;;15.67;100.00
59367;BME280;45163;47.690;11.770;2023-05-19T10:10:16;93478.63;;;15.99;100.00
59367;BME280;45163;47.690;11.770;2023-05-19T10:12:45;93474.66;;;15.39;100.00
59367;BME280;45163;47.690;11.770;2023-05-19T10:15:13;93473.75;;;15.15;100.00
59367;BME280;45163;47.690;11.770;2023-05-19T10:17:41;93472.84;;;15.09;100.00
59367;BME280;45163;47.690;11.770;2023-05-19T10:20:12;93470.09;;;14.90;100.00
59367;BME280;45163;47.690;11.770;2023-05-19T10:22:39;93473.28;;;15.35;100.00
59367;BME280;45163;47.690;11.770;2023-05-19T10:25:07;93476.63;;;15.48;100.00
59367;BME280;45163;47.690;11.770;2023-05-19T10:27:36;93471.41;;;15.68;100.00
59367;BME280;45163;47.690;11.770;2023-05-19T10:30:25;93474.25;;;16.16;100.00
59367;BME280;45163;47.690;11.770;2023-05-19T10:32:54;93464.59;;;16.21;100.00
59367;BME280;45163;47.690;11.770;2023-05-19T10:35:38;93456.09;;;16.10;100.00
59367;BME280;45163;47.690;11.770;2023-05-19T10:43:38;93485.13;;;16.20;100.00
59367;BME280;45163;47.690;11.770;2023-05-19T10:46:09;93485.66;;;15.30;100.00
59367;BME280;45163;47.690;11.770;2023-05-19T10:48:35;93471.13;;;16.00;100.00
59367;BME280;45163;47.690;11.770;2023-05-19T10:51:01;93462.16;;;16.23;100.00
59367;BME280;45163;47.690;11.770;2023-05-19T10:53:31;93464.16;;;16.71;100.00
59367;BME280;45163;47.690;11.770;2023-05-19T10:56:00;93463.25;;;16.16;100.00
59367;BME280;45163;47.690;11.770;2023-05-19T11:01:17;93461.22;;;16.50;100.00
59367;BME280;45163;47.690;11.770;2023-05-19T11:03:51;93458.47;;;16.26;100.00
59367;BME280;45163;47.690;11.770;2023-05-19T11:06:33;93465.47;;;15.52;100.00
59367;BME280;45163;47.690;11.770;2023-05-19T11:14:16;93462.13;;;15.29;100.00
59367;BME280;45163;47.690;11.770;2023-05-19T11:16:46;93465.63;;;15.30;100.00
59367;BME280;45163;47.690;11.770;2023-05-19T11:19:33;93468.25;;;15.94;100.00
59367;BME280;45163;47.690;11.770;2023-05-19T11:22:10;93457.44;;;15.81;100.00
59367;BME280;45163;47.690;11.770;2023-05-19T11:24:44;93465.03;;;15.35;100.00
59367;BME280;45163;47.690;11.770;2023-05-19T11:27:18;93456.94;;;16.25;100.00
59367;BME280;45163;47.690;11.770;2023-05-19T11:29:44;93463.28;;;16.40;100.00
59367;BME280;45163;47.690;11.770;2023-05-19T11:32:11;93460.13;;;16.00;100.00
59367;BME280;45163;47.690;11.770;2023-05-19T11:34:39;93452.19;;;16.26;100.00
59367;BME280;45163;47.690;11.770;2023-05-19T11:37:05;93451.84;;;15.48;100.00
59367;BME280;45163;47.690;11.770;2023-05-19T11:39:34;93462.69;;;16.03;100.00
59367;BME280;45163;47.690;11.770;2023-05-19T11:42:01;93458.84;;;16.43;100.00
59367;BME280;45163;47.690;11.770;2023-05-19T11:44:27;93456.03;;;16.52;100.00
59367;BME280;45163;47.690;11.770;2023-05-19T11:46:53;93447.63;;;16.23;100.00
59367;BME280;45163;47.690;11.770;2023-05-19T11:49:19;93454.81;;;16.20;100.00
59367;BME280;45163;47.690;11.770;2023-05-19T11:51:45;93446.63;;;16.59;100.00
59367;BME280;45163;47.690;11.770;2023-05-19T11:54:11;93454.06;;;17.45;100.00
59367;BME280;45163;47.690;11.770;2023-05-19T11:56:41;93457.75;;;16.88;100.00
59367;BME280;45163;47.690;11.770;2023-05-19T11:59:08;93459.31;;;16.89;100.00
59367;BME280;45163;47.690;11.770;2023-05-19T12:01:34;93454.91;;;16.83;100.00
59367;BME280;45163;47.690;11.770;2023-05-19T12:04:01;93454.25;;;17.71;100.00
59367;BME280;45163;47.690;11.770;2023-05-19T12:06:28;93448.25;;;17.58;100.00
59367;BME280;45163;47.690;11.770;2023-05-19T12:08:54;93449.22;;;17.40;100.00
59367;BME280;45163;47.690;11.770;2023-05-19T12:11:22;93453.66;;;17.67;100.00
59367;BME280;45163;47.690;11.770;2023-05-19T12:13:48;93451.47;;;18.15;100.00
59367;BME280;45163;47.690;11.770;2023-05-19T12:16:19;93447.19;;;17.55;100.00
59367;BME280;45163;47.690;11.770;2023-05-19T12:18:45;93449.69;;;17.83;100.00
59367;BME280;45163;47.690;11.770;2023-05-19T12:21:11;93440.19;;;18.54;100.00
59367;BME280;45163;47.690;11.770;2023-05-19T12:23:42;93437.81;;;18.82;100.00
59367;BME280;45163;47.690;11.770;2023-05-19T12:26:09;93427.94;;;19.02;100.00
59367;BME280;45163;47.690;11.770;2023-05-19T12:28:35;93436.75;;;19.26;100.00
59367;BME280;45163;47.690;11.770;2023-05-19T12:31:01;93438.13;;;19.10;100.00
59367;BME280;45163;47.690;11.770;2023-05-19T12:33:27;93425.47;;;19.04;100.00
59367;BME280;45163;47.690;11.770;2023-05-19T12:35:53;93429.28;;;19.32;100.00
59367;BME280;45163;47.690;11.770;2023-05-19T12:38:21;93427.66;;;19.20;100.00
59367;BME280;45163;47.690;11.770;2023-05-19T12:40:48;93421.88;;;18.98;100.00
59367;BME280;45163;47.690;11.770;2023-05-19T12:43:21;93426.66;;;18.21;100.00
59367;BME280;45163;47.690;11.770;2023-05-19T12:45:48;93430.63;;;17.11;100.00
59367;BME280;45163;47.690;11.770;2023-05-19T12:48:20;93431.91;;;17.39;100.00
59367;BME280;45163;47.690;11.770;2023-05-19T12:50:50;93424.28;;;17.79;100.00
59367;BME280;45163;47.690;11.770;2023-05-19T12:53:16;93416.56;;;17.83;100.00
59367;BME280;45163;47.690;11.770;2023-05-19T12:55:44;93424.09;;;17.53;100.00
59367;BME280;45163;47.690;11.770;2023-05-19T12:58:10;93417.09;;;17.72;100.00
59367;BME280;45163;47.690;11.770;2023-05-19T13:00:41;93414.50;;;18.13;100.00
59367;BME280;45163;47.690;11.770;2023-05-19T13:03:14;93414.38;;;17.87;100.00
59367;BME280;45163;47.690;11.770;2023-05-19T13:05:42;93417.09;;;17.72;100.00
59367;BME280;45163;47.690;11.770;2023-05-19T13:08:13;93417.91;;;17.73;100.00
59367;BME280;45163;47.690;11.770;2023-05-19T13:10:42;93420.97;;;16.77;100.00
59367;BME280;45163;47.690;11.770;2023-05-19T13:13:09;93411.75;;;16.08;100.00